Terminal Aerodrome Forecast
Issued by NWS Charleston, WV

Current Version | Previous Version | Text Only | Print | Product List | Glossary Off
Versions: 1 2 3 4 5 6 7 8 9 10 11 12 13 14 15 16 17 18 19 20 21 22 23 24

000
FTUS41 KRLX 202300
TAFHTS
TAF
KHTS 202340Z 2100/2124 00000KT P6SM BKN060
      TEMPO 2105/2107 BKN025
     FM210700 VRB03KT P6SM BKN040
     FM211400 30005KT P6SM BKN025
     FM211700 31007KT P6SM BKN035=

USA.gov is the U.S. government's official web portal to all federal, state and local government web resources and services.